Time;durP1;ratioP1;P1;durP2;ratioP2;P2;SDS_P1;SDS_P2;PMS_P1;PMS_P2;Temp;Humidity;BMP_temperature;BMP_pressure;BME280_temperature;BME280_humidity;BME280_pressure;Samples;Min_cycle;Max_cycle;Signal;HPM_P1;HPM_P2
2022/01/20 00:01:45;;;;;;;20.33;2.80;;;;;;;8.32;54.40;100787.47;4945975;28;98888;-80
2022/01/20 00:04:20;;;;;;;17.27;2.90;;;;;;;8.80;54.49;100794.94;4942778;28;98968;-79
2022/01/20 00:07:25;;;;;;;16.95;3.53;;;;;;;8.52;54.27;100788.72;4953374;28;96748;-80
2022/01/20 00:26:47;;;;;;;18.58;2.97;;;;;;;8.80;52.65;100790.53;4908197;28;98488;-80
2022/01/20 00:29:22;;;;;;;16.05;3.20;;;;;;;8.56;52.93;100792.97;4936741;28;96852;-79
2022/01/20 00:32:03;;;;;;;19.58;3.33;;;;;;;8.78;53.88;100807.31;4947631;28;97171;-79
2022/01/20 00:34:53;;;;;;;21.60;3.08;;;;;;;9.15;53.49;100812.41;4951428;28;101428;-79
2022/01/20 00:37:20;;;;;;;20.80;3.28;;;;;;;8.65;55.44;100800.66;4944002;28;98562;-79
2022/01/20 00:39:47;;;;;;;25.23;3.30;;;;;;;8.58;56.44;100796.44;4954565;28;97195;-78
2022/01/20 00:42:15;;;;;;;17.42;3.78;;;;;;;8.73;56.40;100794.25;4946947;28;96902;-80
2022/01/20 00:44:42;;;;;;;19.23;4.03;;;;;;;9.13;55.28;100791.38;4944715;28;97871;-79
2022/01/20 00:47:08;;;;;;;19.60;3.50;;;;;;;8.44;57.19;100785.41;4947197;28;101471;-81
2022/01/20 00:49:35;;;;;;;22.75;4.22;;;;;;;8.42;57.28;100787.19;4950998;28;96644;-78
2022/01/20 00:52:02;;;;;;;25.67;3.92;;;;;;;8.00;59.08;100792.63;4950971;28;97072;-79
2022/01/20 00:54:31;;;;;;;27.58;3.88;;;;;;;8.21;58.23;100799.09;4956212;28;97632;-80
2022/01/20 00:56:58;;;;;;;27.70;3.42;;;;;;;8.28;57.16;100809.44;4947322;28;98871;-80
2022/01/20 00:59:25;;;;;;;32.72;4.80;;;;;;;8.16;56.82;100817.66;4940309;28;96676;-80
2022/01/20 01:01:52;;;;;;;35.17;4.30;;;;;;;8.07;57.08;100812.63;4950484;28;96857;-80
2022/01/20 01:04:19;;;;;;;25.67;3.25;;;;;;;7.40;57.36;100797.53;4952220;28;99485;-79
2022/01/20 01:07:03;;;;;;;24.15;3.47;;;;;;;7.98;56.15;100828.63;4945798;28;101380;-80
2022/01/20 01:09:32;;;;;;;19.90;3.05;;;;;;;7.73;56.07;100812.56;4947530;28;96742;-80
2022/01/20 01:12:02;;;;;;;30.52;3.85;;;;;;;7.49;56.12;100818.34;4950597;28;96800;-80
2022/01/20 01:14:31;;;;;;;22.48;3.03;;;;;;;8.11;54.93;100818.66;4952570;28;100319;-80
2022/01/20 01:22:30;;;;;;;18.48;2.40;;;;;;;8.61;53.31;100810.38;4943331;28;97447;-81
2022/01/20 01:25:00;;;;;;;26.80;3.13;;;;;;;8.28;53.69;100817.34;4951929;28;101597;-79
2022/01/20 01:27:29;;;;;;;25.70;3.78;;;;;;;8.11;54.40;100813.41;4953478;28;100520;-82
2022/01/20 01:30:11;;;;;;;23.80;2.80;;;;;;;7.61;55.76;100829.44;4949301;28;96692;-82
2022/01/20 01:32:47;;;;;;;33.13;4.63;;;;;;;7.71;55.48;100829.25;4946168;28;96793;-82
2022/01/20 01:35:15;;;;;;;27.77;3.90;;;;;;;7.62;56.05;100846.09;4950133;28;98163;-82
2022/01/20 01:40:30;;;;;;;33.10;3.67;;;;;;;7.80;55.15;100842.22;4946532;28;96733;-82
2022/01/20 01:42:58;;;;;;;34.13;3.22;;;;;;;7.75;55.01;100846.69;4943660;28;98421;-81
2022/01/20 01:45:30;;;;;;;21.45;2.60;;;;;;;7.65;55.21;100846.03;4946812;28;101102;-79
2022/01/20 01:47:57;;;;;;;26.73;3.60;;;;;;;7.48;55.72;100837.66;4950121;28;101862;-80
2022/01/20 01:50:25;;;;;;;27.63;4.25;;;;;;;7.48;56.46;100838.50;4950205;28;97195;-80
2022/01/20 01:52:53;;;;;;;26.20;3.78;;;;;;;7.32;56.53;100836.25;4951798;28;98354;-80
2022/01/20 01:55:20;;;;;;;37.15;4.05;;;;;;;7.47;55.23;100839.44;4956987;28;100812;-80
2022/01/20 01:57:49;;;;;;;34.67;4.32;;;;;;;7.40;54.80;100844.84;4950852;28;98875;-80
2022/01/20 02:00:17;;;;;;;27.75;3.15;;;;;;;7.94;53.63;100842.78;4951313;28;97172;-80
2022/01/20 02:02:44;;;;;;;31.65;3.50;;;;;;;7.49;54.70;100839.38;4957064;28;98050;-79
2022/01/20 02:05:31;;;;;;;34.05;3.92;;;;;;;7.66;53.22;100836.38;4949246;28;97740;-82
2022/01/20 02:18:53;;;;;;;18.85;2.33;;;;;;;7.32;52.08;100839.75;4948865;28;97181;-80
2022/01/20 02:21:22;;;;;;;24.95;3.00;;;;;;;6.96;51.60;100841.31;4954097;28;96804;-80
2022/01/20 02:23:49;;;;;;;23.77;2.72;;;;;;;7.25;51.95;100842.53;4955001;28;97333;-79
2022/01/20 02:26:16;;;;;;;22.02;2.95;;;;;;;7.18;51.44;100854.91;4952246;28;99177;-80
2022/01/20 02:28:45;;;;;;;28.17;2.67;;;;;;;7.15;52.11;100828.72;4959973;28;99151;-79
2022/01/20 02:31:12;;;;;;;20.85;2.55;;;;;;;7.25;51.17;100837.25;4953634;28;96982;-80
2022/01/20 02:33:39;;;;;;;13.77;2.65;;;;;;;7.31;51.44;100842.38;4953591;28;96785;-78
2022/01/20 02:36:10;;;;;;;16.30;2.38;;;;;;;7.39;51.34;100827.34;4952707;28;98057;-77
2022/01/20 02:38:42;;;;;;;26.85;2.35;;;;;;;7.60;50.72;100822.47;4957634;28;101336;-78
2022/01/20 02:46:40;;;;;;;14.95;2.55;;;;;;;7.66;50.47;100810.97;4954665;28;97137;-78
2022/01/20 02:49:08;;;;;;;15.48;2.60;;;;;;;7.11;51.95;100824.41;4942622;28;99117;-78
2022/01/20 02:51:35;;;;;;;17.23;2.83;;;;;;;7.25;51.09;100813.59;4954586;28;97943;-81
2022/01/20 02:54:03;;;;;;;19.90;2.38;;;;;;;7.53;50.40;100814.75;4956497;28;96963;-79
2022/01/20 02:56:30;;;;;;;11.65;1.73;;;;;;;7.13;50.32;100817.34;4945950;28;96983;-79
2022/01/20 02:58:56;;;;;;;27.85;3.22;;;;;;;7.61;49.47;100797.88;4952217;28;98890;-79
2022/01/20 03:01:23;;;;;;;9.18;1.52;;;;;;;7.32;50.46;100805.56;4947919;28;97353;-79
2022/01/20 03:03:50;;;;;;;16.50;2.10;;;;;;;7.66;49.53;100799.56;4948113;28;96889;-78
2022/01/20 03:06:16;;;;;;;20.63;2.95;;;;;;;7.35;50.25;100796.75;4944189;28;100595;-79
2022/01/20 03:08:43;;;;;;;14.27;2.38;;;;;;;7.66;49.77;100783.78;4949687;28;99388;-78
2022/01/20 03:11:11;;;;;;;19.60;2.58;;;;;;;7.33;49.69;100786.28;4946874;28;96843;-78
2022/01/20 03:13:38;;;;;;;18.17;2.28;;;;;;;7.24;50.11;100781.19;4949657;28;97166;-79
2022/01/20 03:16:06;;;;;;;18.77;2.10;;;;;;;7.42;50.24;100793.94;4948093;28;97410;-79
2022/01/20 03:18:32;;;;;;;15.57;2.10;;;;;;;7.91;48.93;100784.94;4946320;28;98918;-79
2022/01/20 03:20:59;;;;;;;16.67;2.40;;;;;;;7.61;49.42;100776.84;4953771;28;96651;-79
2022/01/20 03:23:26;;;;;;;21.02;2.40;;;;;;;8.09;49.13;100788.88;4954402;28;97769;-79
2022/01/20 03:25:52;;;;;;;16.10;2.17;;;;;;;7.76;49.63;100785.28;4953036;28;98906;-79
2022/01/20 03:28:21;;;;;;;9.85;1.67;;;;;;;8.14;49.33;100776.50;4950082;28;97764;-78
2022/01/20 03:30:47;;;;;;;20.52;2.22;;;;;;;7.76;50.10;100790.56;4953444;28;96891;-80
2022/01/20 03:33:14;;;;;;;15.25;2.05;;;;;;;7.28;52.26;100780.25;4950289;28;96912;-79
2022/01/20 03:35:41;;;;;;;19.38;2.83;;;;;;;7.20;52.28;100766.41;4952498;28;99354;-80
2022/01/20 03:38:08;;;;;;;24.98;2.75;;;;;;;7.58;51.67;100761.16;4943274;28;100331;-79
2022/01/20 03:40:35;;;;;;;17.25;2.72;;;;;;;7.37;51.90;100752.88;4954137;28;96728;-79
2022/01/20 03:43:02;;;;;;;17.30;2.03;;;;;;;7.43;51.86;100761.50;4952786;28;96937;-80
2022/01/20 03:45:30;;;;;;;23.30;2.28;;;;;;;6.80;53.35;100759.34;4944419;28;100059;-80
2022/01/20 03:48:06;;;;;;;18.95;2.10;;;;;;;7.10;51.55;100742.06;4945821;28;98903;-79
2022/01/20 03:53:17;;;;;;;26.02;2.33;;;;;;;7.53;51.63;100749.88;4947080;28;97598;-80
2022/01/20 03:55:43;;;;;;;20.25;2.20;;;;;;;7.55;51.35;100739.31;4953357;28;98451;-80
2022/01/20 03:58:10;;;;;;;26.40;2.65;;;;;;;7.64;50.79;100743.50;4955947;28;99091;-80
2022/01/20 04:00:38;;;;;;;20.88;2.58;;;;;;;7.76;51.66;100744.06;4960740;28;97665;-80
2022/01/20 04:03:05;;;;;;;29.83;3.30;;;;;;;7.39;50.70;100724.81;4957657;28;96840;-79
2022/01/20 04:05:31;;;;;;;26.35;2.70;;;;;;;7.28;51.40;100727.69;4954651;28;100392;-79
2022/01/20 04:07:58;;;;;;;20.77;3.03;;;;;;;7.30;52.23;100714.47;4958553;28;100949;-80
2022/01/20 04:10:25;;;;;;;26.23;2.97;;;;;;;7.74;51.04;100701.19;4958792;28;96819;-81
2022/01/20 04:12:52;;;;;;;24.52;4.38;;;;;;;7.08;51.63;100695.72;4965622;28;97033;-80
2022/01/20 04:15:25;;;;;;;25.95;3.53;;;;;;;6.95;52.99;100694.25;4969089;28;98996;-81
2022/01/20 04:17:56;;;;;;;24.67;3.25;;;;;;;7.36;52.29;100716.97;4974567;28;99602;-81
2022/01/20 04:20:22;;;;;;;24.33;2.67;;;;;;;7.89;50.86;100705.19;4969018;28;96775;-79
2022/01/20 04:22:49;;;;;;;19.90;2.58;;;;;;;7.44;52.44;100715.91;4972611;28;96794;-80
2022/01/20 04:25:15;;;;;;;23.92;2.70;;;;;;;6.47;55.61;100774.88;4969990;28;102364;-80
2022/01/20 04:27:42;;;;;;;26.95;2.50;;;;;;;5.91;60.91;100824.75;4968968;28;98216;-80
2022/01/20 04:30:09;;;;;;;10.90;1.33;;;;;;;5.05;61.89;100832.03;4970959;28;96880;-79
2022/01/20 04:32:35;;;;;;;15.95;1.98;;;;;;;5.06;64.13;100848.59;4976392;28;96429;-79
2022/01/20 04:35:04;;;;;;;15.65;1.50;;;;;;;4.89;63.66;100847.91;4973727;28;98115;-80
2022/01/20 04:37:30;;;;;;;5.55;1.27;;;;;;;5.14;63.66;100847.63;4954542;28;97955;-78
2022/01/20 04:39:59;;;;;;;8.13;0.80;;;;;;;5.13;64.02;100843.28;4954361;28;98545;-78
2022/01/20 04:42:28;;;;;;;18.15;1.52;;;;;;;5.58;63.69;100828.72;4957334;28;97340;-79
2022/01/20 04:44:59;;;;;;;8.57;1.40;;;;;;;5.44;62.21;100812.34;4947129;28;100757;-79
2022/01/20 04:47:34;;;;;;;17.00;1.92;;;;;;;5.05;63.23;100812.84;4949644;28;98829;-79
2022/01/20 04:58:14;;;;;;;12.60;1.30;;;;;;;5.73;58.69;100804.03;4952837;28;97142;-79
2022/01/20 05:00:41;;;;;;;15.00;1.35;;;;;;;5.09;59.38;100806.66;4953629;28;96843;-78
2022/01/20 05:03:07;;;;;;;21.02;1.88;;;;;;;4.96;59.25;100795.47;4951293;28;96875;-78
2022/01/20 05:05:34;;;;;;;14.88;1.80;;;;;;;4.92;57.26;100809.50;4947384;28;101576;-79
2022/01/20 05:08:02;;;;;;;11.80;1.48;;;;;;;5.46;57.73;100799.19;4948959;28;99194;-80
2022/01/20 05:10:30;;;;;;;18.95;1.20;;;;;;;5.90;55.59;100798.59;4949592;28;98604;-81
2022/01/20 05:13:21;;;;;;;14.85;1.50;;;;;;;5.28;56.65;100818.66;4952128;28;97233;-78
2022/01/20 05:15:47;;;;;;;10.25;2.13;;;;;;;4.88;56.69;100810.41;4956411;28;99348;-79
2022/01/20 05:18:14;;;;;;;12.18;1.58;;;;;;;5.69;55.66;100807.59;4951896;28;99224;-79
2022/01/20 05:20:40;;;;;;;12.45;1.80;;;;;;;5.89;54.62;100800.34;4953665;28;96611;-79
2022/01/20 05:23:08;;;;;;;14.73;1.40;;;;;;;5.39;55.22;100811.50;4948553;28;97277;-80
2022/01/20 05:25:35;;;;;;;15.98;1.92;;;;;;;5.32;56.24;100799.38;4946876;28;99175;-80
2022/01/20 05:28:02;;;;;;;10.10;1.63;;;;;;;5.82;55.74;100790.78;4946694;28;98915;-78
2022/01/20 05:30:28;;;;;;;18.27;1.95;;;;;;;5.08;55.49;100795.31;4949237;28;96837;-79
2022/01/20 05:32:54;;;;;;;12.65;1.42;;;;;;;5.18;56.82;100781.22;4948494;28;97292;-79
2022/01/20 05:35:21;;;;;;;12.77;1.58;;;;;;;5.24;55.58;100776.78;4951799;28;99209;-79
2022/01/20 05:37:48;;;;;;;9.48;2.17;;;;;;;5.51;54.97;100779.03;4963297;28;98089;-80
2022/01/20 05:40:16;;;;;;;14.68;1.65;;;;;;;5.57;53.69;100790.31;4949745;28;96781;-81
2022/01/20 05:42:43;;;;;;;14.80;1.75;;;;;;;5.47;54.02;100788.69;4941869;28;96810;-80
2022/01/20 05:45:12;;;;;;;16.23;1.77;;;;;;;5.16;54.24;100792.59;4947922;28;98967;-80
2022/01/20 05:47:44;;;;;;;15.77;1.65;;;;;;;5.21;54.61;100790.78;4953428;28;101925;-80
2022/01/20 05:50:11;;;;;;;17.60;1.67;;;;;;;5.61;53.84;100797.22;4952054;28;97073;-81
2022/01/20 05:52:41;;;;;;;17.25;1.33;;;;;;;5.20;53.25;100792.53;4948421;28;99465;-80
2022/01/20 05:55:10;;;;;;;17.17;1.90;;;;;;;5.39;53.85;100794.91;4950572;28;98837;-80
2022/01/20 05:57:38;;;;;;;14.77;2.05;;;;;;;5.15;54.17;100802.22;4952701;28;99349;-80
2022/01/20 06:00:06;;;;;;;13.52;1.52;;;;;;;5.11;53.62;100808.38;4942147;28;97863;-80
2022/01/20 06:02:36;;;;;;;16.30;2.20;;;;;;;5.14;53.65;100810.97;4950619;28;98237;-80
2022/01/20 06:05:04;;;;;;;10.00;1.58;;;;;;;5.03;53.73;100818.09;4950479;28;101775;-80
2022/01/20 06:07:31;;;;;;;24.17;2.65;;;;;;;5.12;52.97;100807.47;4959315;28;101557;-83
2022/01/20 06:10:06;;;;;;;10.32;2.10;;;;;;;5.12;52.91;100806.63;4948987;28;96773;-81
2022/01/20 06:12:34;;;;;;;14.23;1.98;;;;;;;4.55;53.14;100823.84;4950356;28;96685;-82
2022/01/20 06:15:04;;;;;;;12.85;1.58;;;;;;;4.63;52.46;100827.25;4952791;28;99238;-82
2022/01/20 06:17:36;;;;;;;9.23;1.45;;;;;;;4.93;50.76;100831.28;4955105;28;98816;-79
2022/01/20 06:20:03;;;;;;;12.93;2.20;;;;;;;5.18;50.34;100843.25;4962993;28;99094;-80
2022/01/20 06:22:30;;;;;;;6.53;1.40;;;;;;;5.08;49.25;100839.84;4963659;28;97124;-80
2022/01/20 06:25:27;;;;;;;;;;;;;;;;;;;;;
2022/01/20 06:28:28;;;;;;;;;;;;;;;;;;;;;
2022/01/20 06:31:05;;;;;;;10.32;1.17;;;;;;;5.12;46.39;100864.28;4869010;29;116890;-82
2022/01/20 06:33:32;;;;;;;11.55;1.52;;;;;;;5.24;45.61;100873.72;4862507;29;96654;-80
2022/01/20 06:36:02;;;;;;;9.68;1.45;;;;;;;4.77;46.53;100873.34;4924042;28;98190;-81
2022/01/20 06:38:43;;;;;;;;;;;;;;;;;;;;;
2022/01/20 06:41:10;;;;;;;9.65;1.45;;;;;;;4.60;45.72;100900.53;4965595;28;117374;-82
2022/01/20 06:43:36;;;;;;;9.70;1.80;;;;;;;4.56;43.93;100884.03;4971749;28;97191;-82
2022/01/20 06:46:28;;;;;;;9.60;1.30;;;;;;;4.68;43.54;100893.50;4970002;28;98645;-81
2022/01/20 06:49:10;;;;;;;12.68;1.38;;;;;;;5.30;43.24;100912.97;4904229;28;100866;-85
2022/01/20 06:51:36;;;;;;;14.05;1.45;;;;;;;5.13;42.27;100937.56;4899361;28;97047;-80
2022/01/20 06:54:03;;;;;;;16.48;2.17;;;;;;;5.28;42.04;100936.56;4957574;28;96850;-79
2022/01/20 06:56:31;;;;;;;10.48;1.67;;;;;;;5.86;40.57;100944.56;4955234;28;101786;-79
2022/01/20 06:58:57;;;;;;;4.55;1.33;;;;;;;5.40;41.16;100946.88;4947782;28;98815;-80
2022/01/20 07:01:44;;;;;;;10.85;1.50;;;;;;;5.80;40.11;100954.28;4951988;28;97765;-79
2022/01/20 07:04:13;;;;;;;9.95;1.27;;;;;;;5.25;40.82;100954.06;4949332;28;98407;-79
2022/01/20 07:06:40;;;;;;;10.77;1.70;;;;;;;4.98;41.71;100958.69;4953418;28;100078;-77
2022/01/20 07:09:08;;;;;;;7.97;1.35;;;;;;;5.55;41.45;100966.81;4960358;28;97640;-80
2022/01/20 07:11:36;;;;;;;9.55;1.40;;;;;;;5.73;40.95;100978.84;4957817;28;97302;-80
2022/01/20 07:14:03;;;;;;;14.35;1.65;;;;;;;5.55;41.34;100979.94;4963466;28;98505;-80
2022/01/20 07:16:29;;;;;;;14.07;1.73;;;;;;;5.68;40.58;100997.25;4971853;28;97907;-79
2022/01/20 07:18:58;;;;;;;14.50;1.63;;;;;;;5.75;40.22;101000.69;4961780;28;100502;-77
2022/01/20 07:21:25;;;;;;;8.13;1.38;;;;;;;5.45;40.85;101009.72;4958655;28;97218;-78
2022/01/20 07:23:52;;;;;;;10.40;1.40;;;;;;;5.77;40.30;101018.13;4953765;28;96757;-75
2022/01/20 07:26:18;;;;;;;16.00;2.05;;;;;;;5.77;40.60;101026.00;4961826;28;100777;-77
2022/01/20 07:28:45;;;;;;;12.63;1.52;;;;;;;5.58;42.10;101038.41;4966787;28;98130;-76
2022/01/20 07:31:12;;;;;;;6.80;1.23;;;;;;;5.38;44.19;101023.81;4956655;28;97802;-79
2022/01/20 08:33:48;;;;;;;;;;;;;;;;;;;;;
2022/01/20 08:36:32;;;;;;;17.80;2.15;;;;;;;5.66;40.96;101100.41;4891583;28;115920;-79
2022/01/20 08:39:17;;;;;;;12.57;2.10;;;;;;;5.65;41.10;101091.66;4955004;28;97173;-78
2022/01/20 08:45:43;;;;;;;;;;;;;;;;;;;;;
2022/01/20 08:52:21;;;;;;;;;;;;;;;;;;;;;
2022/01/20 09:01:32;;;;;;;;;;;;;;;;;;;;;
2022/01/20 09:12:14;;;;;;;;;;;;;;;;;;;;;
2022/01/20 09:22:06;;;;;;;;;;;;;;;;;;;;;
2022/01/20 09:24:50;;;;;;;;;;;;;;;;;;;;;
2022/01/20 09:31:24;;;;;;;;;;;;;;;;;;;;;
2022/01/20 09:48:13;;;;;;;;;;;;;;;;;;;;;
2022/01/20 09:51:15;;;;;;;;;;;;;;;;;;;;;
2022/01/20 09:53:59;;;;;;;;;;;;;;;;;;;;;
2022/01/20 10:15:07;;;;;;;21.55;2.75;;;;;;;6.27;42.62;101154.00;4757900;29;100218;-78
2022/01/20 10:34:28;;;;;;;21.85;2.97;;;;;;;6.28;41.76;101173.25;4746612;29;97270;-81
2022/01/20 10:37:35;;;;;;;19.52;3.17;;;;;;;6.37;40.95;101162.63;4918658;28;97331;-80
2022/01/20 13:48:36;;;;;;;;;;;;;;;;;;;;;
2022/01/20 13:54:45;;;;;;;18.00;1.77;;;;;;;7.16;36.95;101151.91;6024965;23;96986;-85
2022/01/20 13:57:36;;;;;;;;;;;;;;;;;;;;;
2022/01/20 14:00:22;;;;;;;11.23;2.00;;;;;;;7.64;36.37;101140.63;6101097;23;124881;-84
2022/01/20 14:28:24;;;;;;;;;;;;;;;;;;;;;
2022/01/20 14:31:58;;;;;;;;;;;;;;;;;;;;;
2022/01/20 15:38:59;;;;;;;13.15;2.30;;;;;;;6.42;45.10;101218.56;4881147;28;97384;-80
2022/01/20 16:01:39;;;;;;;;;;;;;;;6.45;44.15;101246.53;4775655;28;97005;-82
2022/01/20 16:04:20;;;;;;;;;;;;;;;;;;;;;
2022/01/20 16:13:55;;;;;;;;;;;;;;;;;;;;;
2022/01/20 16:16:25;;;;;;;8.45;0.90;;;;;;;4.33;55.04;101291.50;4892769;28;125733;-79
2022/01/20 16:18:52;;;;;;;7.07;1.20;;;;;;;4.28;57.32;101291.47;4919224;28;97119;-81
2022/01/20 16:21:20;;;;;;;4.85;0.85;;;;;;;3.87;57.20;101285.41;4957141;28;96814;-81
2022/01/20 16:23:48;;;;;;;9.90;1.33;;;;;;;3.78;58.37;101272.31;4956052;28;97828;-81
2022/01/20 16:26:16;;;;;;;6.65;1.00;;;;;;;4.18;57.20;101273.19;4955025;28;98926;-82
2022/01/20 16:28:44;;;;;;;9.68;1.40;;;;;;;4.49;57.72;101269.63;4957304;28;96781;-82
2022/01/20 16:31:13;;;;;;;7.30;1.60;;;;;;;4.64;56.67;101279.19;4959206;28;97109;-82
2022/01/20 16:33:52;;;;;;;;;;;;;;;;;;;;;
2022/01/20 16:54:27;;;;;;;8.20;1.25;;;;;;;5.70;48.38;101298.78;4830842;28;97248;-76
2022/01/20 16:56:54;;;;;;;9.15;1.80;;;;;;;5.38;48.62;101309.47;4945834;28;99075;-81
2022/01/20 16:59:21;;;;;;;10.82;1.60;;;;;;;5.54;49.16;101313.72;4954372;28;96700;-80
2022/01/20 17:01:48;;;;;;;7.70;1.55;;;;;;;5.69;48.34;101313.63;4953612;28;96897;-80
2022/01/20 17:04:15;;;;;;;13.60;1.92;;;;;;;5.39;48.72;101321.66;4953766;28;97329;-82
2022/01/20 17:06:41;;;;;;;11.65;1.73;;;;;;;5.54;48.93;101327.69;4953944;28;101566;-79
2022/01/20 17:09:08;;;;;;;6.97;1.80;;;;;;;5.62;48.07;101330.28;4956856;28;99123;-81
2022/01/20 17:11:36;;;;;;;7.45;1.65;;;;;;;5.90;46.86;101339.75;4956275;28;97032;-80
2022/01/20 17:14:04;;;;;;;9.75;1.80;;;;;;;5.74;46.94;101340.69;5050816;22;99204;-82
2022/01/20 17:16:30;;;;;;;14.75;2.05;;;;;;;5.46;47.45;101341.72;4947759;28;99289;-81
2022/01/20 17:18:57;;;;;;;7.07;1.65;;;;;;;5.05;47.75;101334.94;4954309;28;101237;-80
2022/01/20 17:21:24;;;;;;;9.82;1.40;;;;;;;5.27;47.54;101337.44;4956259;28;96819;-82
2022/01/20 17:23:51;;;;;;;10.68;2.78;;;;;;;5.71;46.20;101348.56;4966299;22;97863;-80
2022/01/20 17:26:18;;;;;;;9.20;1.85;;;;;;;5.24;46.95;101340.97;4936410;28;99350;-79
2022/01/20 17:29:29;;;;;;;11.63;1.75;;;;;;;5.57;46.33;101361.78;4937398;28;98869;-82
2022/01/20 17:37:31;;;;;;;10.20;1.88;;;;;;;4.99;47.21;101384.69;4923003;28;97952;-79
2022/01/20 17:39:58;;;;;;;13.98;2.20;;;;;;;5.20;46.90;101371.53;4925751;28;97831;-80
2022/01/20 17:42:48;;;;;;;7.05;1.80;;;;;;;5.10;46.51;101380.31;4938508;28;97884;-79
2022/01/20 17:45:15;;;;;;;9.75;1.58;;;;;;;5.13;46.17;101375.06;4939215;28;97396;-81
2022/01/20 17:47:41;;;;;;;7.22;1.40;;;;;;;5.39;45.88;101380.19;4938085;28;99023;-81
2022/01/20 17:50:12;;;;;;;10.82;1.92;;;;;;;5.55;45.46;101384.50;4942042;28;97992;-79
2022/01/20 17:52:43;;;;;;;18.70;3.88;;;;;;;5.63;45.44;101380.97;4938869;28;97641;-81
2022/01/20 17:55:17;;;;;;;9.60;1.77;;;;;;;5.80;44.77;101398.34;4950147;28;96742;-80
2022/01/20 17:57:44;;;;;;;9.68;1.92;;;;;;;6.04;44.33;101409.63;4954837;28;98204;-81
2022/01/20 18:00:14;;;;;;;11.65;1.67;;;;;;;5.83;44.81;101406.22;4954603;28;97763;-80
2022/01/20 18:02:43;;;;;;;17.17;2.90;;;;;;;6.02;43.55;101412.25;4953167;28;96759;-80
2022/01/20 18:05:12;;;;;;;7.28;2.20;;;;;;;6.15;43.57;101416.53;4950829;28;96807;-80
2022/01/20 18:07:44;;;;;;;15.57;3.22;;;;;;;5.92;42.79;101421.03;4953071;28;97880;-79
2022/01/20 18:10:11;;;;;;;9.13;1.80;;;;;;;5.67;45.92;101432.50;4939520;28;97264;-80
2022/01/20 18:12:38;;;;;;;14.43;2.97;;;;;;;5.66;45.48;101449.09;4933683;28;96831;-79
2022/01/20 18:15:06;;;;;;;12.40;2.55;;;;;;;5.39;46.67;101464.06;4937882;28;96822;-80
2022/01/20 18:17:33;;;;;;;11.38;2.45;;;;;;;4.96;48.84;101470.28;4945964;28;99357;-80
2022/01/20 18:20:08;;;;;;;10.00;2.05;;;;;;;4.92;48.85;101479.91;4947507;28;101401;-80
2022/01/20 18:22:35;;;;;;;9.60;1.35;;;;;;;4.59;52.21;101486.00;4939904;28;98316;-79
2022/01/20 18:25:03;;;;;;;10.02;1.88;;;;;;;4.34;53.65;101490.31;4930031;28;97190;-79
2022/01/20 18:27:30;;;;;;;7.05;1.42;;;;;;;4.46;54.67;101483.38;4932420;28;99221;-77
2022/01/20 18:29:57;;;;;;;11.40;1.85;;;;;;;4.80;55.54;101496.47;4937776;28;98849;-81
2022/01/20 18:32:26;;;;;;;12.93;1.95;;;;;;;5.33;54.66;101486.78;4932135;28;96728;-81
2022/01/20 18:34:53;;;;;;;7.47;2.35;;;;;;;5.66;53.27;101491.06;4931609;28;96923;-79
2022/01/20 18:37:20;;;;;;;12.88;2.30;;;;;;;5.15;53.70;101493.81;4933725;28;103004;-81
2022/01/20 18:39:47;;;;;;;10.95;1.67;;;;;;;5.55;55.70;101499.84;4936724;28;101096;-79
2022/01/20 18:42:16;;;;;;;11.13;3.03;;;;;;;5.05;55.29;101499.97;4930287;28;97557;-83
2022/01/20 18:44:44;;;;;;;14.13;2.30;;;;;;;5.04;56.38;101513.06;4938090;28;97746;-80
2022/01/20 18:47:12;;;;;;;11.45;2.40;;;;;;;5.39;54.99;101512.97;4931825;28;100652;-82
2022/01/20 18:49:39;;;;;;;10.35;2.90;;;;;;;5.60;54.53;101520.81;4928519;28;101090;-79
2022/01/20 18:52:08;;;;;;;11.10;2.78;;;;;;;5.77;54.21;101529.50;4934698;28;96857;-80
2022/01/20 18:54:41;;;;;;;18.60;2.78;;;;;;;5.33;54.71;101533.97;4932038;28;98852;-78
2022/01/20 18:57:16;;;;;;;12.68;3.70;;;;;;;5.38;53.85;101543.56;4929995;28;98244;-80
2022/01/20 18:59:45;;;;;;;11.27;2.85;;;;;;;4.85;57.75;101537.50;4928511;28;101013;-81
2022/01/20 19:02:12;;;;;;;10.70;1.70;;;;;;;5.07;56.30;101547.09;4934568;28;98793;-79
2022/01/20 19:04:38;;;;;;;11.55;1.95;;;;;;;5.16;56.55;101563.69;4933893;28;97213;-79
2022/01/20 19:07:06;;;;;;;12.52;2.35;;;;;;;4.70;57.51;101577.63;4929483;28;97867;-80
2022/01/20 19:09:34;;;;;;;7.40;1.33;;;;;;;4.97;58.11;101582.03;4934062;28;100171;-79
2022/01/20 19:12:02;;;;;;;6.63;1.45;;;;;;;3.87;60.02;101583.47;4926999;28;98648;-79
2022/01/20 19:14:30;;;;;;;11.43;2.20;;;;;;;3.99;62.14;101601.81;4935725;28;97257;-80
2022/01/20 19:17:02;;;;;;;14.05;1.75;;;;;;;3.73;63.67;101600.81;4927512;28;99670;-87
2022/01/20 19:19:49;;;;;;;8.93;2.97;;;;;;;3.43;65.84;101583.16;4930666;28;98022;-78
2022/01/20 19:22:15;;;;;;;9.60;1.88;;;;;;;2.70;64.80;101578.22;4927002;28;96879;-80
2022/01/20 19:24:43;;;;;;;6.15;0.93;;;;;;;2.30;69.28;101631.69;4935560;28;97001;-79
2022/01/20 19:27:10;;;;;;;8.38;1.95;;;;;;;1.91;73.70;101639.00;4933056;28;101021;-77
2022/01/20 19:29:41;;;;;;;9.88;1.05;;;;;;;2.06;75.74;101576.63;4936763;28;101043;-78
2022/01/20 19:32:11;;;;;;;7.47;1.00;;;;;;;2.68;75.93;101572.13;4938082;28;97336;-78
2022/01/20 19:34:38;;;;;;;9.30;0.90;;;;;;;3.14;72.94;101578.63;4937769;28;97292;-77
2022/01/20 19:37:05;;;;;;;8.02;1.33;;;;;;;3.42;70.56;101579.69;4930169;28;101899;-79
2022/01/20 19:39:32;;;;;;;5.40;1.17;;;;;;;3.42;68.89;101577.06;4937076;28;97742;-78
2022/01/20 19:41:59;;;;;;;5.82;1.52;;;;;;;3.98;67.77;101580.03;4937090;28;97312;-79
2022/01/20 19:44:25;;;;;;;5.18;1.10;;;;;;;4.28;67.17;101578.38;4934404;28;97157;-78
2022/01/20 19:46:56;;;;;;;8.43;1.25;;;;;;;4.16;66.09;101594.91;4935010;28;100642;-78
2022/01/20 19:49:22;;;;;;;7.00;2.20;;;;;;;4.10;66.15;101604.47;4934882;28;99095;-77
2022/01/20 19:51:49;;;;;;;8.48;1.35;;;;;;;4.24;65.80;101603.69;4936387;28;97029;-76
2022/01/20 19:54:17;;;;;;;10.30;1.90;;;;;;;3.97;65.01;101614.88;4932919;28;97706;-79
2022/01/20 19:56:43;;;;;;;10.88;1.63;;;;;;;3.77;65.24;101616.50;4932413;28;100239;-78
2022/01/20 19:59:16;;;;;;;8.23;1.40;;;;;;;3.11;66.80;101617.75;4930844;28;99163;-78
2022/01/20 20:01:47;;;;;;;8.82;1.15;;;;;;;3.52;65.74;101620.72;4930126;28;96736;-77
2022/01/20 20:04:23;;;;;;;14.63;1.92;;;;;;;3.39;66.36;101624.09;4936640;28;99462;-77
2022/01/20 20:06:50;;;;;;;11.73;1.60;;;;;;;3.57;65.60;101610.28;4932054;28;99253;-79
2022/01/20 20:09:16;;;;;;;14.38;2.15;;;;;;;4.05;63.81;101622.78;4928976;28;97043;-78
2022/01/20 20:11:43;;;;;;;13.75;1.73;;;;;;;3.81;64.27;101633.94;4935976;28;96914;-77
2022/01/20 20:14:09;;;;;;;7.38;1.45;;;;;;;4.01;63.39;101637.56;4933837;28;97327;-78
2022/01/20 20:16:36;;;;;;;9.27;1.95;;;;;;;3.59;64.13;101643.41;4933367;28;98466;-79
2022/01/20 20:19:03;;;;;;;12.77;1.35;;;;;;;3.53;63.93;101635.53;4936349;28;98181;-78
2022/01/20 20:21:32;;;;;;;7.82;1.58;;;;;;;3.66;62.56;101646.06;4933480;28;98053;-80
2022/01/20 20:23:59;;;;;;;7.30;1.58;;;;;;;3.82;62.17;101651.41;4932619;28;97565;-79
2022/01/20 20:26:26;;;;;;;9.68;1.40;;;;;;;3.39;61.72;101658.06;4935709;28;98949;-80
2022/01/20 20:29:10;;;;;;;9.88;1.52;;;;;;;3.87;61.46;101657.50;4929331;28;99391;-79
2022/01/20 20:31:37;;;;;;;14.82;1.52;;;;;;;3.74;61.27;101657.47;4926711;28;97110;-79
2022/01/20 20:34:05;;;;;;;8.23;1.17;;;;;;;3.70;61.30;101655.66;4925066;28;97171;-78
2022/01/20 20:36:37;;;;;;;14.43;1.77;;;;;;;3.59;62.24;101663.44;4927169;28;99730;-78
2022/01/20 20:39:04;;;;;;;6.05;1.48;;;;;;;4.17;61.75;101658.56;4931233;28;101095;-77
2022/01/20 20:41:33;;;;;;;9.32;1.70;;;;;;;3.72;61.30;101661.78;4923919;28;96944;-78
2022/01/20 20:43:59;;;;;;;8.95;1.70;;;;;;;4.04;61.16;101662.00;4928219;28;96891;-78
2022/01/20 20:46:26;;;;;;;8.07;1.25;;;;;;;3.73;61.03;101672.25;4925945;28;99628;-78
2022/01/20 20:48:53;;;;;;;7.25;1.40;;;;;;;3.55;61.29;101687.78;4928198;28;97848;-79
2022/01/20 20:51:20;;;;;;;7.65;1.45;;;;;;;3.13;62.60;101677.84;4931239;28;96883;-77
2022/01/20 20:53:49;;;;;;;12.85;1.25;;;;;;;3.30;62.32;101684.09;4927666;28;96980;-79
2022/01/20 20:56:15;;;;;;;4.28;1.23;;;;;;;3.09;63.27;101689.09;4930866;28;98410;-76
2022/01/20 20:58:43;;;;;;;9.63;1.77;;;;;;;2.93;62.85;101692.44;4928644;28;101220;-78